createdAt,value
2023-01-22T00:00:13.943Z,6.30
2023-01-22T00:02:16.011Z,6.30
2023-01-22T00:04:17.872Z,6.30
2023-01-22T00:06:20.445Z,6.30
2023-01-22T00:08:22.397Z,6.30
2023-01-22T00:10:24.471Z,6.20
2023-01-22T00:12:26.968Z,6.20
2023-01-22T00:14:28.754Z,6.30
2023-01-22T00:16:30.957Z,6.20
2023-01-22T00:18:35.106Z,6.20
2023-01-22T00:20:36.943Z,6.30
2023-01-22T00:22:38.600Z,6.30
2023-01-22T00:24:40.530Z,6.20
2023-01-22T00:26:42.282Z,6.30
2023-01-22T00:28:47.576Z,6.20
2023-01-22T00:30:56.782Z,6.20
2023-01-22T00:32:59.116Z,6.20
2023-01-22T00:35:01.030Z,6.20
2023-01-22T00:37:02.864Z,6.20
2023-01-22T00:39:04.670Z,6.20
2023-01-22T00:41:07.521Z,6.20
2023-01-22T00:43:11.807Z,6.30
2023-01-22T00:45:14.405Z,6.20
2023-01-22T00:47:16.150Z,6.30
2023-01-22T00:49:17.913Z,6.30
2023-01-22T00:51:20.299Z,6.20
2023-01-22T00:53:21.957Z,6.30
2023-01-22T00:55:23.632Z,6.30
2023-01-22T00:57:25.391Z,6.30
2023-01-22T00:59:27.098Z,6.30
2023-01-22T01:01:28.830Z,6.30
2023-01-22T01:03:34.768Z,6.30
2023-01-22T01:05:36.668Z,6.30
2023-01-22T01:07:38.289Z,6.30
2023-01-22T01:09:40.423Z,6.30
2023-01-22T01:11:42.155Z,6.30
2023-01-22T01:13:43.958Z,6.40
2023-01-22T01:15:45.676Z,6.40
2023-01-22T01:17:47.383Z,6.40
2023-01-22T01:19:49.077Z,6.40
2023-01-22T01:21:50.893Z,6.40
2023-01-22T01:23:53.973Z,6.40
2023-01-22T01:25:55.729Z,6.40
2023-01-22T01:27:57.493Z,6.40
2023-01-22T01:29:59.260Z,6.40
2023-01-22T01:32:01.014Z,6.40
2023-01-22T01:34:03.048Z,6.40
2023-01-22T01:36:06.309Z,6.40
2023-01-22T01:38:08.443Z,6.40
2023-01-22T01:40:10.671Z,6.40
2023-01-22T01:42:12.357Z,6.40
2023-01-22T01:44:23.611Z,6.40
2023-01-22T01:46:27.483Z,6.40
2023-01-22T01:48:39.483Z,6.40
2023-01-22T01:50:42.716Z,6.40
2023-01-22T01:52:44.654Z,6.40
2023-01-22T01:54:48.295Z,6.40
2023-01-22T01:56:52.000Z,6.40
2023-01-22T01:58:56.155Z,6.50
2023-01-22T02:01:00.884Z,6.50
2023-01-22T02:03:02.953Z,6.50
2023-01-22T02:05:05.263Z,6.50
2023-01-22T02:07:07.326Z,6.50
2023-01-22T02:09:11.830Z,6.50
2023-01-22T02:11:14.000Z,6.50
2023-01-22T02:13:20.860Z,6.50
2023-01-22T02:15:22.608Z,6.50
2023-01-22T02:17:24.297Z,6.50
2023-01-22T02:19:26.165Z,6.50
2023-01-22T02:21:29.673Z,6.50
2023-01-22T02:23:32.063Z,6.60
2023-01-22T02:25:34.147Z,6.60
2023-01-22T02:27:36.483Z,6.60
2023-01-22T02:29:40.553Z,6.60
2023-01-22T02:31:44.814Z,6.60
2023-01-22T02:33:46.931Z,6.60
2023-01-22T02:35:49.653Z,6.60
2023-01-22T02:37:51.507Z,6.60
2023-01-22T02:39:53.345Z,6.60
2023-01-22T02:41:55.282Z,6.60
2023-01-22T02:43:57.065Z,6.60
2023-01-22T02:45:59.671Z,6.70
2023-01-22T02:48:01.377Z,6.60
2023-01-22T02:50:04.175Z,6.60
2023-01-22T02:52:06.180Z,6.70
2023-01-22T02:54:08.959Z,6.70
2023-01-22T02:56:11.089Z,6.70
2023-01-22T02:58:14.647Z,6.70
2023-01-22T03:00:16.940Z,6.70
2023-01-22T03:02:18.948Z,6.70
2023-01-22T03:04:22.944Z,6.70
2023-01-22T03:06:26.329Z,6.70
2023-01-22T03:08:27.999Z,6.70
2023-01-22T03:10:29.743Z,6.70
2023-01-22T03:12:49.994Z,6.70
2023-01-22T03:15:10.060Z,6.80
2023-01-22T03:17:31.224Z,6.80
2023-01-22T03:19:52.725Z,6.80
2023-01-22T03:21:54.406Z,6.80
2023-01-22T03:23:56.184Z,6.80
2023-01-22T03:25:57.807Z,6.80
2023-01-22T03:28:16.314Z,6.80
2023-01-22T03:30:20.896Z,6.80
2023-01-22T03:32:22.840Z,6.80
2023-01-22T03:34:25.337Z,6.80
2023-01-22T03:36:29.011Z,6.80
2023-01-22T03:38:34.795Z,6.80
2023-01-22T03:40:36.552Z,6.80
2023-01-22T03:42:38.315Z,6.80
2023-01-22T03:44:41.005Z,6.90
2023-01-22T03:46:42.642Z,6.90
2023-01-22T03:48:44.681Z,6.90
2023-01-22T03:50:46.449Z,6.90
2023-01-22T03:52:48.185Z,6.90
2023-01-22T03:54:50.320Z,6.90
2023-01-22T03:56:52.371Z,6.90
2023-01-22T03:59:00.598Z,6.90
2023-01-22T04:01:05.367Z,6.90
2023-01-22T04:03:07.179Z,6.90
2023-01-22T04:05:13.301Z,6.90
2023-01-22T04:07:14.895Z,6.90
2023-01-22T04:09:16.997Z,6.90
2023-01-22T04:11:24.033Z,6.90
2023-01-22T04:13:27.040Z,6.90
2023-01-22T04:15:29.343Z,6.90
2023-01-22T04:17:32.238Z,6.90
2023-01-22T04:19:44.429Z,6.90
2023-01-22T04:22:24.331Z,6.90
2023-01-22T04:24:26.075Z,6.90
2023-01-22T04:26:27.981Z,6.90
2023-01-22T04:28:32.014Z,6.90
2023-01-22T04:30:35.106Z,6.90
2023-01-22T04:32:55.054Z,6.90
2023-01-22T04:35:04.021Z,6.90
2023-01-22T04:37:21.795Z,7.00
2023-01-22T04:39:23.435Z,6.90
2023-01-22T04:41:25.213Z,7.00
2023-01-22T04:43:27.223Z,6.90
2023-01-22T04:45:29.104Z,6.90
2023-01-22T04:47:31.359Z,6.90
2023-01-22T04:49:33.014Z,7.00
2023-01-22T04:51:34.884Z,7.00
2023-01-22T04:53:36.562Z,7.00
2023-01-22T04:55:41.929Z,7.00
2023-01-22T04:57:44.873Z,7.00
2023-01-22T04:59:46.537Z,7.00
2023-01-22T05:01:50.540Z,7.00
2023-01-22T05:03:52.382Z,7.00
2023-01-22T05:05:55.037Z,7.00
2023-01-22T05:07:56.794Z,7.00
2023-01-22T05:09:58.457Z,7.00
2023-01-22T05:12:00.711Z,7.00
2023-01-22T05:14:08.787Z,7.00
2023-01-22T05:16:11.529Z,7.10
2023-01-22T05:18:13.237Z,7.00
2023-01-22T05:20:21.925Z,7.00
2023-01-22T05:22:23.721Z,7.00
2023-01-22T05:24:25.370Z,7.00
2023-01-22T05:26:27.460Z,7.00
2023-01-22T05:28:42.080Z,7.00
2023-01-22T05:30:58.441Z,7.00
2023-01-22T05:33:10.413Z,7.00
2023-01-22T05:35:13.111Z,7.00
2023-01-22T05:37:14.798Z,7.00
2023-01-22T05:39:17.090Z,7.00
2023-01-22T05:41:18.859Z,7.00
2023-01-22T05:43:20.758Z,7.10
2023-01-22T05:45:28.266Z,7.00
2023-01-22T05:47:52.912Z,7.10
2023-01-22T05:50:10.306Z,7.10
2023-01-22T05:52:12.066Z,7.10
2023-01-22T05:54:14.527Z,7.10
2023-01-22T05:56:17.988Z,7.10
2023-01-22T05:58:19.619Z,7.10
2023-01-22T06:00:22.731Z,7.10
2023-01-22T06:02:30.604Z,7.10
2023-01-22T06:04:33.735Z,7.10
2023-01-22T06:06:38.895Z,7.10
2023-01-22T06:08:41.555Z,7.10
2023-01-22T06:10:43.350Z,7.10
2023-01-22T06:12:45.131Z,7.10
2023-01-22T06:14:47.136Z,7.20
2023-01-22T06:16:48.907Z,7.10
2023-01-22T06:18:59.011Z,7.10
2023-01-22T06:21:05.561Z,7.20
2023-01-22T06:23:07.554Z,7.20
2023-01-22T06:25:09.395Z,7.20
2023-01-22T06:27:35.994Z,7.20
2023-01-22T06:29:40.051Z,7.20
2023-01-22T06:31:42.114Z,7.20
2023-01-22T06:33:44.386Z,7.20
2023-01-22T06:35:55.260Z,7.20
2023-01-22T06:37:57.759Z,7.20
2023-01-22T06:39:59.792Z,7.20
2023-01-22T06:42:14.299Z,7.20
2023-01-22T06:44:17.656Z,7.20
2023-01-22T06:46:19.607Z,7.20
2023-01-22T06:48:43.682Z,7.20
2023-01-22T06:50:45.371Z,7.20
2023-01-22T06:52:47.025Z,7.20
2023-01-22T06:54:48.696Z,7.20
2023-01-22T06:56:50.461Z,7.20
2023-01-22T06:58:53.446Z,7.20
2023-01-22T07:00:55.159Z,7.20
2023-01-22T07:02:57.071Z,7.20
2023-01-22T07:04:59.228Z,7.20
2023-01-22T07:07:00.872Z,7.20
2023-01-22T07:09:02.491Z,7.20
2023-01-22T07:11:06.933Z,7.20
2023-01-22T07:13:10.197Z,7.20
2023-01-22T07:15:11.935Z,7.20
2023-01-22T07:17:13.645Z,7.20
2023-01-22T07:19:15.373Z,7.20
2023-01-22T07:21:17.042Z,7.20
2023-01-22T07:23:18.710Z,7.20
2023-01-22T07:25:29.207Z,7.20
2023-01-22T07:27:32.481Z,7.20
2023-01-22T07:29:34.141Z,7.20
2023-01-22T07:31:35.898Z,7.20
2023-01-22T07:33:37.890Z,7.20
2023-01-22T07:35:39.783Z,7.20
2023-01-22T07:37:41.481Z,7.20
2023-01-22T07:39:43.127Z,7.20
2023-01-22T07:41:44.846Z,7.20
2023-01-22T07:43:46.554Z,7.20
2023-01-22T07:45:48.172Z,7.20
2023-01-22T07:47:50.815Z,7.30
2023-01-22T07:49:52.482Z,7.30
2023-01-22T07:51:54.166Z,7.30
2023-01-22T07:53:55.850Z,7.20
2023-01-22T07:55:57.482Z,7.20
2023-01-22T07:58:00.063Z,7.20
2023-01-22T08:00:01.908Z,7.30
2023-01-22T08:02:03.921Z,7.30
2023-01-22T08:04:05.645Z,7.30
2023-01-22T08:06:08.303Z,7.30
2023-01-22T08:08:17.420Z,7.30
2023-01-22T08:10:19.437Z,7.30
2023-01-22T08:12:21.253Z,7.30
2023-01-22T08:14:22.986Z,7.40
2023-01-22T08:16:24.694Z,7.40
2023-01-22T08:18:26.466Z,7.40
2023-01-22T08:20:28.630Z,7.40
2023-01-22T08:22:30.895Z,7.40
2023-01-22T08:24:34.582Z,7.50
2023-01-22T08:26:36.702Z,7.50
2023-01-22T08:28:38.873Z,7.50
2023-01-22T08:30:46.539Z,7.50
2023-01-22T08:32:50.503Z,7.50
2023-01-22T08:34:54.268Z,7.50
2023-01-22T08:36:56.430Z,7.60
2023-01-22T08:38:59.113Z,7.60
2023-01-22T08:41:01.399Z,7.60
2023-01-22T08:43:03.222Z,7.70
2023-01-22T08:45:05.633Z,7.70
2023-01-22T08:47:10.390Z,7.70
2023-01-22T08:49:12.455Z,7.70
2023-01-22T08:51:14.686Z,7.80
2023-01-22T08:53:16.879Z,7.80
2023-01-22T08:55:18.882Z,7.80
2023-01-22T08:57:20.683Z,7.80
2023-01-22T08:59:22.381Z,7.80
2023-01-22T09:01:24.080Z,7.80
2023-01-22T09:03:25.996Z,7.80
2023-01-22T09:05:28.152Z,7.90
2023-01-22T09:07:29.795Z,7.90
2023-01-22T09:09:31.452Z,7.90
2023-01-22T09:11:33.517Z,7.90
2023-01-22T09:13:35.232Z,7.90
2023-01-22T09:15:37.106Z,7.90
2023-01-22T09:17:38.790Z,7.90
2023-01-22T09:19:40.417Z,7.90
2023-01-22T09:21:42.270Z,7.90
2023-01-22T09:23:43.951Z,7.90
2023-01-22T09:25:45.597Z,7.90
2023-01-22T09:27:47.275Z,7.90
2023-01-22T09:29:48.970Z,7.90
2023-01-22T09:31:51.181Z,7.90
2023-01-22T09:33:53.175Z,7.90
2023-01-22T09:35:54.832Z,7.90
2023-01-22T09:37:56.498Z,7.90
2023-01-22T09:39:58.189Z,7.90
2023-01-22T09:42:01.324Z,7.90
2023-01-22T09:44:02.967Z,7.90
2023-01-22T09:46:07.282Z,7.90
2023-01-22T09:48:13.871Z,7.90
2023-01-22T09:50:24.076Z,7.90
2023-01-22T09:52:27.470Z,7.90
2023-01-22T09:54:29.837Z,7.90
2023-01-22T09:56:35.252Z,7.90
2023-01-22T09:58:36.939Z,7.90
2023-01-22T10:00:40.752Z,7.90
2023-01-22T10:02:48.532Z,7.90
2023-01-22T10:04:52.461Z,7.90
2023-01-22T10:06:55.947Z,7.90
2023-01-22T10:09:24.780Z,8.00
2023-01-22T10:11:26.437Z,8.00
2023-01-22T10:13:30.382Z,8.00
2023-01-22T10:15:33.003Z,8.00
2023-01-22T10:17:34.959Z,8.00
2023-01-22T10:19:39.377Z,8.00
2023-01-22T10:21:44.024Z,8.00
2023-01-22T10:23:46.012Z,8.00
2023-01-22T10:25:47.961Z,8.00
2023-01-22T10:27:56.786Z,8.00
2023-01-22T10:30:00.574Z,8.10
2023-01-22T10:32:05.367Z,8.10
2023-01-22T10:34:12.082Z,8.10
2023-01-22T10:36:14.895Z,8.10
2023-01-22T10:38:30.657Z,8.10
2023-01-22T10:40:40.918Z,8.10
2023-01-22T10:42:42.539Z,8.10
2023-01-22T10:44:44.295Z,8.10
2023-01-22T10:46:46.563Z,8.10
2023-01-22T10:49:00.727Z,8.10
2023-01-22T10:51:16.328Z,8.10
2023-01-22T10:53:25.615Z,8.10
2023-01-22T10:55:31.976Z,8.10
2023-01-22T10:57:36.914Z,8.10
2023-01-22T10:59:38.857Z,8.10
2023-01-22T11:01:41.880Z,8.10
2023-01-22T11:03:43.561Z,8.10
2023-01-22T11:05:46.757Z,8.10
2023-01-22T11:07:51.112Z,8.10
2023-01-22T11:09:59.472Z,8.10
2023-01-22T11:12:07.182Z,8.20
2023-01-22T11:14:14.000Z,8.20
2023-01-22T11:16:17.477Z,8.20
2023-01-22T11:18:26.164Z,8.20
2023-01-22T11:20:30.578Z,8.30
2023-01-22T11:22:37.179Z,8.20
2023-01-22T11:24:42.118Z,8.30
2023-01-22T11:26:53.438Z,8.30
2023-01-22T11:29:04.770Z,8.30
2023-01-22T11:31:12.985Z,8.30
2023-01-22T11:33:29.968Z,8.30
2023-01-22T11:35:31.609Z,8.40
2023-01-22T11:37:46.232Z,8.40
2023-01-22T11:40:01.119Z,8.40
2023-01-22T11:42:05.335Z,8.40
2023-01-22T11:44:10.246Z,8.40
2023-01-22T11:46:11.969Z,8.40
2023-01-22T11:48:25.691Z,8.40
2023-01-22T11:50:30.197Z,8.40
2023-01-22T11:52:31.920Z,8.40
2023-01-22T11:54:33.642Z,8.40
2023-01-22T11:56:35.476Z,8.40
2023-01-22T11:58:49.446Z,8.40
2023-01-22T12:01:02.781Z,8.40
2023-01-22T12:03:19.640Z,8.40
2023-01-22T12:05:30.923Z,8.40
2023-01-22T12:07:32.711Z,8.40
2023-01-22T12:09:53.331Z,8.40
2023-01-22T12:12:05.978Z,8.40
2023-01-22T12:14:26.217Z,8.40
2023-01-22T12:16:32.367Z,8.50
2023-01-22T12:18:52.898Z,8.50
2023-01-22T12:20:57.608Z,8.50
2023-01-22T12:23:07.964Z,8.60
2023-01-22T12:25:28.400Z,8.60
2023-01-22T12:27:42.330Z,8.60
2023-01-22T12:29:47.083Z,8.70
2023-01-22T12:32:08.971Z,8.70
2023-01-22T12:34:13.566Z,8.70
2023-01-22T12:36:18.709Z,8.70
2023-01-22T12:38:20.372Z,8.80
2023-01-22T12:40:37.122Z,8.80
2023-01-22T12:42:46.367Z,8.70
2023-01-22T12:44:48.073Z,8.80
2023-01-22T12:46:59.065Z,8.80
2023-01-22T12:49:03.897Z,8.80
2023-01-22T12:51:21.923Z,8.80
2023-01-22T12:53:28.073Z,8.80
2023-01-22T12:55:31.462Z,8.80
2023-01-22T12:57:38.363Z,8.80
2023-01-22T12:59:43.062Z,8.80
2023-01-22T13:01:44.888Z,8.80
2023-01-22T13:03:56.090Z,8.90
2023-01-22T13:05:58.629Z,8.80
2023-01-22T13:08:06.501Z,8.90
2023-01-22T13:10:20.653Z,8.90
2023-01-22T13:12:25.935Z,8.90
2023-01-22T13:14:28.794Z,8.90
2023-01-22T13:16:34.850Z,8.90
2023-01-22T13:18:41.410Z,8.90
2023-01-22T13:20:48.422Z,8.90
2023-01-22T13:22:50.149Z,8.90
2023-01-22T13:24:56.722Z,8.90
2023-01-22T13:27:00.358Z,8.90
2023-01-22T13:29:04.295Z,8.90
2023-01-22T13:31:11.025Z,8.80
2023-01-22T13:33:16.203Z,8.90
2023-01-22T13:35:19.881Z,8.80
2023-01-22T13:37:25.207Z,8.80
2023-01-22T13:39:31.799Z,8.80
2023-01-22T13:41:37.362Z,8.80
2023-01-22T13:43:39.676Z,8.80
2023-01-22T13:45:41.349Z,8.80
2023-01-22T13:47:43.061Z,8.80
2023-01-22T13:49:44.725Z,8.80
2023-01-22T13:51:46.784Z,8.80
2023-01-22T13:53:54.612Z,8.80
2023-01-22T13:55:56.946Z,8.80
2023-01-22T13:58:01.616Z,8.80
2023-01-22T14:00:03.951Z,8.80
2023-01-22T14:02:27.058Z,8.80
2023-01-22T14:04:32.474Z,8.80
2023-01-22T14:06:44.128Z,8.80
2023-01-22T14:08:47.534Z,8.80
2023-01-22T14:10:56.436Z,8.80
2023-01-22T14:12:58.901Z,8.80
2023-01-22T14:15:00.741Z,8.80
2023-01-22T14:17:02.456Z,8.80
2023-01-22T14:19:04.440Z,8.80
2023-01-22T14:21:07.890Z,8.80
2023-01-22T14:23:09.572Z,8.80
2023-01-22T14:25:11.341Z,8.80
2023-01-22T14:27:13.166Z,8.80
2023-01-22T14:29:15.606Z,8.80
2023-01-22T14:31:17.414Z,8.80
2023-01-22T14:33:23.841Z,8.80
2023-01-22T14:35:29.009Z,8.80
2023-01-22T14:37:30.852Z,8.80
2023-01-22T14:39:36.094Z,8.70
2023-01-22T14:41:37.922Z,8.70
2023-01-22T14:43:39.636Z,8.70
2023-01-22T14:45:43.165Z,8.70
2023-01-22T14:47:44.934Z,8.70
2023-01-22T14:49:46.667Z,8.70
2023-01-22T14:51:48.469Z,8.70
2023-01-22T14:53:50.465Z,8.70
2023-01-22T14:55:52.231Z,8.70
2023-01-22T14:57:54.809Z,8.70
2023-01-22T14:59:56.605Z,8.60
2023-01-22T15:01:58.308Z,8.60
2023-01-22T15:04:01.382Z,8.70
2023-01-22T15:06:03.192Z,8.70
2023-01-22T15:08:05.030Z,8.60
2023-01-22T15:10:08.205Z,8.60
2023-01-22T15:12:10.312Z,8.60
2023-01-22T15:14:12.057Z,8.60
2023-01-22T15:16:13.825Z,8.60
2023-01-22T15:18:15.624Z,8.60
2023-01-22T15:20:17.747Z,8.60
2023-01-22T15:22:19.467Z,8.60
2023-01-22T15:24:21.293Z,8.60
2023-01-22T15:26:27.406Z,8.60
2023-01-22T15:28:29.139Z,8.60
2023-01-22T15:30:30.853Z,8.60
2023-01-22T15:32:33.053Z,8.60
2023-01-22T15:34:34.706Z,8.60
2023-01-22T15:36:37.199Z,8.60
2023-01-22T15:38:38.965Z,8.60
2023-01-22T15:40:40.907Z,8.50
2023-01-22T15:42:42.681Z,8.50
2023-01-22T15:44:44.592Z,8.60
2023-01-22T15:46:47.287Z,8.50
2023-01-22T15:48:49.131Z,8.50
2023-01-22T15:50:51.079Z,8.50
2023-01-22T15:52:53.684Z,8.50
2023-01-22T15:54:55.584Z,8.50
2023-01-22T15:56:57.465Z,8.50
2023-01-22T15:58:59.500Z,8.50
2023-01-22T16:01:01.508Z,8.50
2023-01-22T16:03:03.282Z,8.40
2023-01-22T16:05:05.556Z,8.40
2023-01-22T16:07:07.271Z,8.40
2023-01-22T16:09:09.275Z,8.40
2023-01-22T16:11:11.342Z,8.40
2023-01-22T16:13:13.099Z,8.40
2023-01-22T16:15:14.913Z,8.40
2023-01-22T16:17:16.645Z,8.40
2023-01-22T16:19:18.409Z,8.40
2023-01-22T16:21:21.032Z,8.40
2023-01-22T16:23:23.124Z,8.40
2023-01-22T16:25:24.893Z,8.40
2023-01-22T16:27:26.689Z,8.30
2023-01-22T16:29:28.568Z,8.30
2023-01-22T16:31:31.893Z,8.30
2023-01-22T16:33:34.788Z,8.30
2023-01-22T16:35:36.589Z,8.30
2023-01-22T16:37:38.634Z,8.30
2023-01-22T16:39:40.512Z,8.30
2023-01-22T16:41:42.642Z,8.30
2023-01-22T16:43:46.003Z,8.30
2023-01-22T16:45:48.072Z,8.30
2023-01-22T16:47:51.573Z,8.30
2023-01-22T16:49:54.754Z,8.30
2023-01-22T16:52:20.800Z,8.30
2023-01-22T16:54:35.314Z,8.20
2023-01-22T16:56:43.398Z,8.20
2023-01-22T16:58:46.997Z,8.20
2023-01-22T17:00:53.319Z,8.20
2023-01-22T17:03:00.763Z,8.20
2023-01-22T17:05:07.391Z,8.20
2023-01-22T17:07:31.560Z,8.20
2023-01-22T17:09:38.325Z,8.20
2023-01-22T17:11:45.176Z,8.20
2023-01-22T17:13:49.415Z,8.20
2023-01-22T17:15:54.598Z,8.20
2023-01-22T17:17:58.601Z,8.20
2023-01-22T17:20:01.910Z,8.20
2023-01-22T17:22:06.088Z,8.20
2023-01-22T17:24:10.888Z,8.20
2023-01-22T17:26:15.240Z,8.20
2023-01-22T17:28:18.968Z,8.20
2023-01-22T17:30:24.035Z,8.20
2023-01-22T17:32:27.853Z,8.20
2023-01-22T17:34:34.400Z,8.20
2023-01-22T17:36:38.368Z,8.20
2023-01-22T17:38:43.024Z,8.20
2023-01-22T17:40:46.239Z,8.20
2023-01-22T17:42:57.502Z,8.20
2023-01-22T17:45:09.104Z,8.20
2023-01-22T17:47:15.943Z,8.20
2023-01-22T17:49:25.402Z,8.20
2023-01-22T17:51:35.306Z,8.20
2023-01-22T17:53:50.672Z,8.20
2023-01-22T17:58:52.526Z,8.20
2023-01-22T18:01:10.254Z,8.20
2023-01-22T18:03:17.183Z,8.20
2023-01-22T18:05:27.070Z,8.10
2023-01-22T18:07:32.862Z,8.20
2023-01-22T18:09:44.174Z,8.10
2023-01-22T18:11:50.091Z,8.10
2023-01-22T18:13:54.952Z,8.10
2023-01-22T18:16:00.603Z,8.10
2023-01-22T18:18:03.845Z,8.10
2023-01-22T18:20:10.266Z,8.10
2023-01-22T18:22:15.653Z,8.20
2023-01-22T18:24:24.599Z,8.10
2023-01-22T18:26:31.689Z,8.20
2023-01-22T18:28:34.538Z,8.10
2023-01-22T18:30:37.377Z,8.10
2023-01-22T18:32:44.137Z,8.10
2023-01-22T18:34:49.043Z,8.10
2023-01-22T18:36:56.236Z,8.10
2023-01-22T18:39:02.314Z,8.10
2023-01-22T18:41:12.135Z,8.10
2023-01-22T18:43:19.321Z,8.10
2023-01-22T18:45:29.338Z,8.10
2023-01-22T18:47:38.090Z,8.10
2023-01-22T18:49:43.001Z,8.10
2023-01-22T18:51:46.088Z,8.10
2023-01-22T18:53:48.697Z,8.10
2023-01-22T18:55:51.018Z,8.10
2023-01-22T18:57:58.727Z,8.10
2023-01-22T19:00:01.637Z,8.10
2023-01-22T19:02:04.706Z,8.10
2023-01-22T19:04:12.235Z,8.10
2023-01-22T19:06:16.870Z,8.10
2023-01-22T19:08:19.313Z,8.10
2023-01-22T19:10:25.022Z,8.10
2023-01-22T19:12:27.632Z,8.10
2023-01-22T19:14:33.901Z,8.10
2023-01-22T19:16:40.436Z,8.10
2023-01-22T19:18:51.454Z,8.10
2023-01-22T19:20:57.248Z,8.10
2023-01-22T19:23:00.307Z,8.10
2023-01-22T19:25:08.400Z,8.10
2023-01-22T19:27:15.193Z,8.10
2023-01-22T19:29:26.405Z,8.00
2023-01-22T19:31:33.954Z,8.10
2023-01-22T19:33:40.692Z,8.00
2023-01-22T19:35:49.704Z,8.00
2023-01-22T19:37:57.236Z,8.10
2023-01-22T19:40:10.947Z,8.00
2023-01-22T19:42:15.321Z,8.10
2023-01-22T19:44:22.068Z,8.00
2023-01-22T19:46:26.400Z,8.00
2023-01-22T19:48:33.646Z,8.10
2023-01-22T19:50:36.051Z,8.00
2023-01-22T19:52:44.504Z,8.00
2023-01-22T19:54:52.688Z,8.00
2023-01-22T19:56:56.300Z,8.00
2023-01-22T19:59:04.775Z,8.00
2023-01-22T20:01:09.174Z,8.00
2023-01-22T20:03:14.502Z,8.00
2023-01-22T20:05:21.460Z,8.00
2023-01-22T20:07:25.650Z,8.00
2023-01-22T20:09:30.896Z,8.00
2023-01-22T20:11:33.951Z,8.00
2023-01-22T20:13:45.930Z,8.00
2023-01-22T20:15:52.700Z,8.00
2023-01-22T20:17:58.007Z,8.00
2023-01-22T20:20:06.135Z,8.00
2023-01-22T20:22:12.529Z,8.00
2023-01-22T20:24:18.385Z,8.00
2023-01-22T20:26:23.028Z,7.90
2023-01-22T20:28:28.653Z,8.00
2023-01-22T20:30:42.775Z,7.90
2023-01-22T20:32:50.571Z,7.90
2023-01-22T20:34:55.835Z,7.90
2023-01-22T20:37:01.495Z,7.90
2023-01-22T20:39:12.004Z,7.90
2023-01-22T20:41:19.614Z,7.90
2023-01-22T20:43:24.812Z,7.90
2023-01-22T20:45:32.111Z,7.90
2023-01-22T20:47:34.689Z,7.90
2023-01-22T20:49:38.660Z,7.90
2023-01-22T20:51:43.724Z,7.90
2023-01-22T20:53:48.650Z,7.90
2023-01-22T20:56:02.749Z,7.90
2023-01-22T20:58:05.228Z,7.90
2023-01-22T21:00:18.050Z,7.90
2023-01-22T21:02:25.982Z,7.90
2023-01-22T21:04:32.305Z,7.90
2023-01-22T21:06:36.771Z,7.90
2023-01-22T21:08:42.641Z,7.90
2023-01-22T21:10:54.875Z,7.90
2023-01-22T21:12:57.897Z,7.90
2023-01-22T21:15:02.672Z,7.90
2023-01-22T21:17:06.227Z,7.90
2023-01-22T21:19:15.968Z,7.90
2023-01-22T21:21:22.394Z,7.90
2023-01-22T21:23:24.397Z,7.90
2023-01-22T21:25:27.396Z,7.90
2023-01-22T21:27:30.366Z,7.90
2023-01-22T21:29:37.064Z,7.90
2023-01-22T21:31:41.667Z,7.90
2023-01-22T21:33:48.830Z,7.90
2023-01-22T21:35:51.629Z,7.90
2023-01-22T21:37:55.239Z,7.90
2023-01-22T21:39:59.518Z,7.90
2023-01-22T21:42:22.180Z,7.90
2023-01-22T21:44:43.977Z,7.90
2023-01-22T21:46:48.109Z,7.90
2023-01-22T21:48:51.118Z,7.90
2023-01-22T21:50:53.834Z,7.90
2023-01-22T21:52:56.839Z,7.90
2023-01-22T21:55:01.089Z,7.90
2023-01-22T21:57:03.578Z,7.90
2023-01-22T21:59:06.321Z,7.90
2023-01-22T22:01:11.829Z,7.90
2023-01-22T22:03:17.061Z,7.90
2023-01-22T22:05:20.606Z,7.90
2023-01-22T22:07:23.781Z,7.90
2023-01-22T22:09:29.117Z,7.90
2023-01-22T22:11:33.041Z,7.90
2023-01-22T22:13:37.237Z,7.90
2023-01-22T22:15:39.534Z,7.90
2023-01-22T22:17:42.011Z,7.90
2023-01-22T22:19:46.305Z,7.90
2023-01-22T22:21:50.746Z,7.90
2023-01-22T22:23:52.685Z,7.90
2023-01-22T22:25:54.667Z,7.80
2023-01-22T22:27:58.155Z,7.80
2023-01-22T22:29:59.847Z,7.80
2023-01-22T22:32:01.613Z,7.80
2023-01-22T22:34:03.405Z,7.80
2023-01-22T22:36:05.279Z,7.80
2023-01-22T22:38:07.053Z,7.80
2023-01-22T22:40:10.885Z,7.80
2023-01-22T22:42:12.559Z,7.80
2023-01-22T22:44:15.039Z,7.80
2023-01-22T22:46:18.280Z,7.80
2023-01-22T22:48:21.106Z,7.80
2023-01-22T22:50:22.814Z,7.80
2023-01-22T22:52:24.507Z,7.80
2023-01-22T22:54:26.248Z,7.80
2023-01-22T22:56:28.485Z,7.80
2023-01-22T22:58:30.203Z,7.80
2023-01-22T23:00:32.056Z,7.80
2023-01-22T23:02:33.777Z,7.80
2023-01-22T23:04:35.675Z,7.90
2023-01-22T23:06:37.739Z,7.80
2023-01-22T23:08:47.027Z,7.80
2023-01-22T23:10:48.708Z,7.80
2023-01-22T23:12:50.362Z,7.80
2023-01-22T23:14:52.096Z,7.80
2023-01-22T23:16:53.830Z,7.80
2023-01-22T23:18:55.618Z,7.80
2023-01-22T23:20:57.357Z,7.80
2023-01-22T23:22:59.091Z,7.80
2023-01-22T23:25:00.804Z,7.80
2023-01-22T23:27:02.582Z,7.80
2023-01-22T23:29:05.854Z,7.70
2023-01-22T23:31:09.461Z,7.80
2023-01-22T23:33:11.283Z,7.80
2023-01-22T23:35:13.047Z,7.80
2023-01-22T23:37:14.741Z,7.80
2023-01-22T23:39:17.866Z,7.70
2023-01-22T23:41:19.949Z,7.80
2023-01-22T23:43:21.577Z,7.80
2023-01-22T23:45:23.250Z,7.80
2023-01-22T23:47:26.958Z,7.70
2023-01-22T23:49:28.637Z,7.80
2023-01-22T23:51:30.530Z,7.70
2023-01-22T23:53:34.932Z,7.70
2023-01-22T23:55:36.648Z,7.70
2023-01-22T23:57:38.295Z,7.70
2023-01-22T23:59:40.099Z,7.70
